sensor_id;sensor_type;location;lat;lon;timestamp;P1;durP1;ratioP1;P2;durP2;ratioP2
56593;SDS011;42474;51.660;5.824;2023-07-08T00:02:52;4.14;;;2.56;;
56593;SDS011;42474;51.660;5.824;2023-07-08T00:06:52;3.87;;;2.38;;
56593;SDS011;42474;51.660;5.824;2023-07-08T00:10:52;2.99;;;2.39;;
56593;SDS011;42474;51.660;5.824;2023-07-08T00:14:52;5.41;;;2.26;;
56593;SDS011;42474;51.660;5.824;2023-07-08T00:18:52;3.37;;;2.35;;
56593;SDS011;42474;51.660;5.824;2023-07-08T00:22:52;5.31;;;2.7;;
56593;SDS011;42474;51.660;5.824;2023-07-08T00:26:52;3.37;;;2.82;;
56593;SDS011;42474;51.660;5.824;2023-07-08T00:30:52;7.52;;;2.71;;
56593;SDS011;42474;51.660;5.824;2023-07-08T00:34:52;4.89;;;2.44;;
56593;SDS011;42474;51.660;5.824;2023-07-08T00:38:52;4.2;;;2.67;;
56593;SDS011;42474;51.660;5.824;2023-07-08T00:42:53;3.77;;;2.56;;
56593;SDS011;42474;51.660;5.824;2023-07-08T00:46:58;4.8;;;2.36;;
56593;SDS011;42474;51.660;5.824;2023-07-08T00:50:52;4.46;;;2.47;;
56593;SDS011;42474;51.660;5.824;2023-07-08T00:54:54;3.08;;;2.58;;
56593;SDS011;42474;51.660;5.824;2023-07-08T00:58:57;3.29;;;2.41;;
56593;SDS011;42474;51.660;5.824;2023-07-08T01:02:54;3.92;;;2.6;;
56593;SDS011;42474;51.660;5.824;2023-07-08T01:06:55;3.33;;;2.42;;
56593;SDS011;42474;51.660;5.824;2023-07-08T01:10:55;4.16;;;2.56;;
56593;SDS011;42474;51.660;5.824;2023-07-08T01:14:54;4.41;;;2.68;;
56593;SDS011;42474;51.660;5.824;2023-07-08T01:18:52;3.56;;;2.84;;
56593;SDS011;42474;51.660;5.824;2023-07-08T01:22:52;4.9;;;3;;
56593;SDS011;42474;51.660;5.824;2023-07-08T01:26:53;4.15;;;2.74;;
56593;SDS011;42474;51.660;5.824;2023-07-08T01:30:53;3.69;;;2.68;;
56593;SDS011;42474;51.660;5.824;2023-07-08T01:38:52;3.73;;;3.07;;
56593;SDS011;42474;51.660;5.824;2023-07-08T01:42:53;3.29;;;2.56;;
56593;SDS011;42474;51.660;5.824;2023-07-08T01:46:54;5.55;;;2.49;;
56593;SDS011;42474;51.660;5.824;2023-07-08T01:50:57;3.94;;;2.27;;
56593;SDS011;42474;51.660;5.824;2023-07-08T01:54:54;2.42;;;2.07;;
56593;SDS011;42474;51.660;5.824;2023-07-08T01:58:52;4.49;;;2.48;;
56593;SDS011;42474;51.660;5.824;2023-07-08T02:02:52;3.06;;;2.31;;
56593;SDS011;42474;51.660;5.824;2023-07-08T02:06:53;2.92;;;2.27;;
56593;SDS011;42474;51.660;5.824;2023-07-08T02:10:54;4.25;;;2.48;;
56593;SDS011;42474;51.660;5.824;2023-07-08T02:14:52;4.54;;;2.23;;
56593;SDS011;42474;51.660;5.824;2023-07-08T02:18:52;3.85;;;2.65;;
56593;SDS011;42474;51.660;5.824;2023-07-08T02:22:52;2.97;;;2.38;;
56593;SDS011;42474;51.660;5.824;2023-07-08T02:26:52;3.51;;;2.55;;
56593;SDS011;42474;51.660;5.824;2023-07-08T02:30:52;4.33;;;2.39;;
56593;SDS011;42474;51.660;5.824;2023-07-08T02:34:52;4.83;;;2.57;;
56593;SDS011;42474;51.660;5.824;2023-07-08T02:38:52;3.54;;;2.78;;
56593;SDS011;42474;51.660;5.824;2023-07-08T02:42:52;3.26;;;2.77;;
56593;SDS011;42474;51.660;5.824;2023-07-08T02:46:52;3.51;;;2.87;;
56593;SDS011;42474;51.660;5.824;2023-07-08T02:50:58;4.07;;;2.92;;
56593;SDS011;42474;51.660;5.824;2023-07-08T02:54:52;3.16;;;2.81;;
56593;SDS011;42474;51.660;5.824;2023-07-08T02:58:53;3.41;;;2.49;;
56593;SDS011;42474;51.660;5.824;2023-07-08T03:02:52;3.66;;;2.52;;
56593;SDS011;42474;51.660;5.824;2023-07-08T03:06:52;3.09;;;2.8;;
56593;SDS011;42474;51.660;5.824;2023-07-08T03:10:55;3.86;;;2.81;;
56593;SDS011;42474;51.660;5.824;2023-07-08T03:14:52;3.38;;;2.86;;
56593;SDS011;42474;51.660;5.824;2023-07-08T03:18:52;4.1;;;2.98;;
56593;SDS011;42474;51.660;5.824;2023-07-08T03:22:52;4.29;;;2.64;;
56593;SDS011;42474;51.660;5.824;2023-07-08T03:26:52;4.96;;;3.27;;
56593;SDS011;42474;51.660;5.824;2023-07-08T03:30:52;4.73;;;2.85;;
56593;SDS011;42474;51.660;5.824;2023-07-08T03:34:52;4.36;;;3.26;;
56593;SDS011;42474;51.660;5.824;2023-07-08T03:38:54;4.43;;;2.69;;
56593;SDS011;42474;51.660;5.824;2023-07-08T03:42:52;6.54;;;2.8;;
56593;SDS011;42474;51.660;5.824;2023-07-08T03:46:52;4.21;;;2.87;;
56593;SDS011;42474;51.660;5.824;2023-07-08T03:50:52;5.55;;;2.56;;
56593;SDS011;42474;51.660;5.824;2023-07-08T03:54:52;4.14;;;2.79;;
56593;SDS011;42474;51.660;5.824;2023-07-08T03:58:52;3.75;;;2.66;;
56593;SDS011;42474;51.660;5.824;2023-07-08T04:02:53;6.49;;;2.72;;
56593;SDS011;42474;51.660;5.824;2023-07-08T04:06:52;5;;;2.74;;
56593;SDS011;42474;51.660;5.824;2023-07-08T04:10:52;6.13;;;2.76;;
56593;SDS011;42474;51.660;5.824;2023-07-08T04:14:52;3.63;;;2.75;;
56593;SDS011;42474;51.660;5.824;2023-07-08T04:18:52;3.29;;;2.69;;
56593;SDS011;42474;51.660;5.824;2023-07-08T04:22:52;5.26;;;2.68;;
56593;SDS011;42474;51.660;5.824;2023-07-08T04:26:53;4.57;;;2.73;;
56593;SDS011;42474;51.660;5.824;2023-07-08T04:30:52;3.84;;;2.93;;
56593;SDS011;42474;51.660;5.824;2023-07-08T04:34:52;3.13;;;2.52;;
56593;SDS011;42474;51.660;5.824;2023-07-08T04:38:52;4.07;;;2.72;;
56593;SDS011;42474;51.660;5.824;2023-07-08T04:42:53;3.42;;;2.55;;
56593;SDS011;42474;51.660;5.824;2023-07-08T04:46:55;4.57;;;2.72;;
56593;SDS011;42474;51.660;5.824;2023-07-08T04:50:53;4.09;;;3.01;;
56593;SDS011;42474;51.660;5.824;2023-07-08T04:54:52;7.47;;;2.66;;
56593;SDS011;42474;51.660;5.824;2023-07-08T04:58:52;3.53;;;2.65;;
56593;SDS011;42474;51.660;5.824;2023-07-08T05:02:52;4.45;;;2.46;;
56593;SDS011;42474;51.660;5.824;2023-07-08T05:06:52;4.09;;;2.65;;
56593;SDS011;42474;51.660;5.824;2023-07-08T05:10:52;3.99;;;2.52;;
56593;SDS011;42474;51.660;5.824;2023-07-08T05:14:52;4.44;;;2.45;;
56593;SDS011;42474;51.660;5.824;2023-07-08T05:18:53;2.97;;;2.33;;
56593;SDS011;42474;51.660;5.824;2023-07-08T05:22:52;3.9;;;2.48;;
56593;SDS011;42474;51.660;5.824;2023-07-08T05:26:52;4.56;;;2.77;;
56593;SDS011;42474;51.660;5.824;2023-07-08T05:30:53;5.01;;;2.59;;
56593;SDS011;42474;51.660;5.824;2023-07-08T05:34:53;3.62;;;2.41;;
56593;SDS011;42474;51.660;5.824;2023-07-08T05:38:52;4.68;;;2.98;;
56593;SDS011;42474;51.660;5.824;2023-07-08T05:42:52;3.42;;;2.68;;
56593;SDS011;42474;51.660;5.824;2023-07-08T05:46:52;4.81;;;2.73;;
56593;SDS011;42474;51.660;5.824;2023-07-08T05:50:54;3.21;;;2.53;;
56593;SDS011;42474;51.660;5.824;2023-07-08T05:54:53;2.74;;;2.23;;
56593;SDS011;42474;51.660;5.824;2023-07-08T05:58:52;3.33;;;2.48;;
56593;SDS011;42474;51.660;5.824;2023-07-08T06:02:53;3.16;;;2.62;;
56593;SDS011;42474;51.660;5.824;2023-07-08T06:06:52;3.3;;;2.76;;
56593;SDS011;42474;51.660;5.824;2023-07-08T06:10:52;3.67;;;2.47;;
56593;SDS011;42474;51.660;5.824;2023-07-08T06:14:53;8.79;;;3.15;;
56593;SDS011;42474;51.660;5.824;2023-07-08T06:18:52;4.35;;;2.88;;
56593;SDS011;42474;51.660;5.824;2023-07-08T06:22:52;3.4;;;2.67;;
56593;SDS011;42474;51.660;5.824;2023-07-08T06:26:52;4.01;;;2.81;;
56593;SDS011;42474;51.660;5.824;2023-07-08T06:30:53;4.53;;;2.88;;
56593;SDS011;42474;51.660;5.824;2023-07-08T06:34:53;4.65;;;2.65;;
56593;SDS011;42474;51.660;5.824;2023-07-08T06:38:53;5.78;;;3.03;;
56593;SDS011;42474;51.660;5.824;2023-07-08T06:42:53;5.24;;;2.88;;
56593;SDS011;42474;51.660;5.824;2023-07-08T06:46:53;5.13;;;3.1;;
56593;SDS011;42474;51.660;5.824;2023-07-08T06:50:52;4.54;;;3.04;;
56593;SDS011;42474;51.660;5.824;2023-07-08T06:54:53;5.39;;;2.96;;
56593;SDS011;42474;51.660;5.824;2023-07-08T06:58:53;5.62;;;3.03;;
56593;SDS011;42474;51.660;5.824;2023-07-08T07:02:53;4.76;;;3.11;;
56593;SDS011;42474;51.660;5.824;2023-07-08T07:06:53;5.07;;;3.16;;
56593;SDS011;42474;51.660;5.824;2023-07-08T07:10:53;4.8;;;2.7;;
56593;SDS011;42474;51.660;5.824;2023-07-08T07:18:53;4.21;;;2.86;;
56593;SDS011;42474;51.660;5.824;2023-07-08T07:26:53;5.05;;;2.91;;
56593;SDS011;42474;51.660;5.824;2023-07-08T07:34:53;3.86;;;3.04;;
56593;SDS011;42474;51.660;5.824;2023-07-08T07:38:53;4.03;;;2.84;;
56593;SDS011;42474;51.660;5.824;2023-07-08T07:42:53;4.18;;;2.84;;
56593;SDS011;42474;51.660;5.824;2023-07-08T07:46:53;3.83;;;2.82;;
56593;SDS011;42474;51.660;5.824;2023-07-08T07:50:52;4.5;;;2.82;;
56593;SDS011;42474;51.660;5.824;2023-07-08T07:54:54;4.67;;;2.99;;
56593;SDS011;42474;51.660;5.824;2023-07-08T07:58:53;4.86;;;3.19;;
56593;SDS011;42474;51.660;5.824;2023-07-08T08:02:52;6.68;;;3.41;;
56593;SDS011;42474;51.660;5.824;2023-07-08T08:06:52;5.31;;;3.38;;
56593;SDS011;42474;51.660;5.824;2023-07-08T08:10:53;6.21;;;3.31;;
56593;SDS011;42474;51.660;5.824;2023-07-08T08:14:53;4.8;;;3.06;;
56593;SDS011;42474;51.660;5.824;2023-07-08T08:18:53;6.85;;;3.69;;
56593;SDS011;42474;51.660;5.824;2023-07-08T08:22:53;4.74;;;3.02;;
56593;SDS011;42474;51.660;5.824;2023-07-08T08:26:53;4.6;;;3.5;;
56593;SDS011;42474;51.660;5.824;2023-07-08T08:30:53;4.39;;;3.02;;
56593;SDS011;42474;51.660;5.824;2023-07-08T08:34:53;4.38;;;3.09;;
56593;SDS011;42474;51.660;5.824;2023-07-08T08:38:53;5.74;;;3.49;;
56593;SDS011;42474;51.660;5.824;2023-07-08T08:42:58;5.85;;;3.67;;
56593;SDS011;42474;51.660;5.824;2023-07-08T08:46:57;5.96;;;3.54;;
56593;SDS011;42474;51.660;5.824;2023-07-08T08:50:56;6.37;;;3.45;;
56593;SDS011;42474;51.660;5.824;2023-07-08T08:54:53;5.65;;;3.48;;
56593;SDS011;42474;51.660;5.824;2023-07-08T08:58:58;5.43;;;3.85;;
56593;SDS011;42474;51.660;5.824;2023-07-08T09:02:58;5.21;;;3.64;;
56593;SDS011;42474;51.660;5.824;2023-07-08T09:06:59;5.48;;;3.78;;
56593;SDS011;42474;51.660;5.824;2023-07-08T09:10:57;5.33;;;3.54;;
56593;SDS011;42474;51.660;5.824;2023-07-08T09:14:53;4.76;;;3.47;;
56593;SDS011;42474;51.660;5.824;2023-07-08T09:18:59;4.76;;;3.44;;
56593;SDS011;42474;51.660;5.824;2023-07-08T09:22:58;6.32;;;3.82;;
56593;SDS011;42474;51.660;5.824;2023-07-08T09:26:55;5.92;;;3.63;;
56593;SDS011;42474;51.660;5.824;2023-07-08T09:30:53;6.08;;;3.73;;
56593;SDS011;42474;51.660;5.824;2023-07-08T09:34:55;5.54;;;3.47;;
56593;SDS011;42474;51.660;5.824;2023-07-08T09:38:53;7.48;;;3.99;;
56593;SDS011;42474;51.660;5.824;2023-07-08T09:42:58;6.26;;;3.64;;
56593;SDS011;42474;51.660;5.824;2023-07-08T09:46:53;6.13;;;3.57;;
56593;SDS011;42474;51.660;5.824;2023-07-08T09:50:54;17.47;;;5.4;;
56593;SDS011;42474;51.660;5.824;2023-07-08T09:54:53;6.73;;;3.93;;
56593;SDS011;42474;51.660;5.824;2023-07-08T09:58:53;5.38;;;3.73;;
56593;SDS011;42474;51.660;5.824;2023-07-08T10:02:55;6.19;;;3.85;;
56593;SDS011;42474;51.660;5.824;2023-07-08T10:06:54;6.23;;;3.82;;
56593;SDS011;42474;51.660;5.824;2023-07-08T10:10:58;7.38;;;4.77;;
56593;SDS011;42474;51.660;5.824;2023-07-08T10:14:58;6.02;;;4;;
56593;SDS011;42474;51.660;5.824;2023-07-08T10:18:54;6.88;;;4.09;;
56593;SDS011;42474;51.660;5.824;2023-07-08T10:23:02;7.5;;;4.04;;
56593;SDS011;42474;51.660;5.824;2023-07-08T10:26:57;6.72;;;4.37;;
56593;SDS011;42474;51.660;5.824;2023-07-08T10:31:01;5.71;;;3.96;;
56593;SDS011;42474;51.660;5.824;2023-07-08T10:39:04;6.1;;;4.22;;
56593;SDS011;42474;51.660;5.824;2023-07-08T10:43:03;5.59;;;3.45;;
56593;SDS011;42474;51.660;5.824;2023-07-08T10:47:00;5.45;;;3.68;;
56593;SDS011;42474;51.660;5.824;2023-07-08T10:51:07;7.63;;;3.94;;
56593;SDS011;42474;51.660;5.824;2023-07-08T10:55:02;5.5;;;3.87;;
56593;SDS011;42474;51.660;5.824;2023-07-08T10:59:19;4.88;;;3.51;;
56593;SDS011;42474;51.660;5.824;2023-07-08T11:03:06;5.35;;;3.57;;
56593;SDS011;42474;51.660;5.824;2023-07-08T11:06:56;6.65;;;3.6;;
56593;SDS011;42474;51.660;5.824;2023-07-08T11:10:56;5.87;;;3.87;;
56593;SDS011;42474;51.660;5.824;2023-07-08T11:14:59;5.27;;;3.47;;
56593;SDS011;42474;51.660;5.824;2023-07-08T11:18:55;5.64;;;3.71;;
56593;SDS011;42474;51.660;5.824;2023-07-08T11:22:57;5.67;;;3.82;;
56593;SDS011;42474;51.660;5.824;2023-07-08T11:26:56;6.57;;;3.69;;
56593;SDS011;42474;51.660;5.824;2023-07-08T11:30:53;6.15;;;3.82;;
56593;SDS011;42474;51.660;5.824;2023-07-08T11:34:54;6.36;;;3.72;;
56593;SDS011;42474;51.660;5.824;2023-07-08T11:38:54;7.36;;;3.84;;
56593;SDS011;42474;51.660;5.824;2023-07-08T11:43:00;7.45;;;3.88;;
56593;SDS011;42474;51.660;5.824;2023-07-08T11:46:54;4.36;;;3.7;;
56593;SDS011;42474;51.660;5.824;2023-07-08T11:50:54;6.22;;;3.94;;
56593;SDS011;42474;51.660;5.824;2023-07-08T11:55:08;4.66;;;3.43;;
56593;SDS011;42474;51.660;5.824;2023-07-08T11:59:03;5.06;;;3.55;;
56593;SDS011;42474;51.660;5.824;2023-07-08T12:02:55;4.99;;;3.55;;
56593;SDS011;42474;51.660;5.824;2023-07-08T12:07:03;5.87;;;3.97;;
56593;SDS011;42474;51.660;5.824;2023-07-08T12:10:53;5.58;;;3.97;;
56593;SDS011;42474;51.660;5.824;2023-07-08T12:15:01;4.7;;;3.36;;
56593;SDS011;42474;51.660;5.824;2023-07-08T12:18:54;5.48;;;3.21;;
56593;SDS011;42474;51.660;5.824;2023-07-08T12:22:53;7.72;;;3.38;;
56593;SDS011;42474;51.660;5.824;2023-07-08T12:26:53;4.08;;;3.21;;
56593;SDS011;42474;51.660;5.824;2023-07-08T12:30:53;4.58;;;3.36;;
56593;SDS011;42474;51.660;5.824;2023-07-08T12:34:53;5.14;;;3.43;;
56593;SDS011;42474;51.660;5.824;2023-07-08T12:38:55;7.23;;;3.25;;
56593;SDS011;42474;51.660;5.824;2023-07-08T12:42:53;6.66;;;3.28;;
56593;SDS011;42474;51.660;5.824;2023-07-08T12:46:54;4.61;;;2.98;;
56593;SDS011;42474;51.660;5.824;2023-07-08T12:50:53;4.6;;;3.55;;
56593;SDS011;42474;51.660;5.824;2023-07-08T12:54:53;6.18;;;3.35;;
56593;SDS011;42474;51.660;5.824;2023-07-08T12:58:55;6.46;;;3.04;;
56593;SDS011;42474;51.660;5.824;2023-07-08T13:02:57;6.43;;;3.38;;
56593;SDS011;42474;51.660;5.824;2023-07-08T13:06:54;5.21;;;2.95;;
56593;SDS011;42474;51.660;5.824;2023-07-08T13:10:56;6.08;;;3.36;;
56593;SDS011;42474;51.660;5.824;2023-07-08T13:14:54;6.67;;;3.11;;
56593;SDS011;42474;51.660;5.824;2023-07-08T13:18:53;6.19;;;3.39;;
56593;SDS011;42474;51.660;5.824;2023-07-08T13:22:56;6.15;;;3.05;;
56593;SDS011;42474;51.660;5.824;2023-07-08T13:26:55;7.63;;;3.38;;
56593;SDS011;42474;51.660;5.824;2023-07-08T13:30:54;5.74;;;3.45;;
56593;SDS011;42474;51.660;5.824;2023-07-08T13:34:53;5.24;;;2.97;;
56593;SDS011;42474;51.660;5.824;2023-07-08T13:38:53;4.9;;;3.08;;
56593;SDS011;42474;51.660;5.824;2023-07-08T13:42:53;5.11;;;3.03;;
56593;SDS011;42474;51.660;5.824;2023-07-08T13:46:54;4.33;;;2.96;;
56593;SDS011;42474;51.660;5.824;2023-07-08T13:50:58;5.41;;;3.04;;
56593;SDS011;42474;51.660;5.824;2023-07-08T13:54:57;6.2;;;3.29;;
56593;SDS011;42474;51.660;5.824;2023-07-08T13:59:00;4.48;;;3.14;;
56593;SDS011;42474;51.660;5.824;2023-07-08T14:02:53;4.67;;;3.29;;
56593;SDS011;42474;51.660;5.824;2023-07-08T14:06:53;4.58;;;3.28;;
56593;SDS011;42474;51.660;5.824;2023-07-08T14:10:53;4.58;;;2.89;;
56593;SDS011;42474;51.660;5.824;2023-07-08T14:14:53;5.88;;;3.04;;
56593;SDS011;42474;51.660;5.824;2023-07-08T14:18:54;5.05;;;2.94;;
56593;SDS011;42474;51.660;5.824;2023-07-08T14:22:53;5.01;;;2.75;;
56593;SDS011;42474;51.660;5.824;2023-07-08T14:26:53;3.96;;;2.83;;
56593;SDS011;42474;51.660;5.824;2023-07-08T14:30:53;5.7;;;3.28;;
56593;SDS011;42474;51.660;5.824;2023-07-08T14:34:56;4.32;;;2.67;;
56593;SDS011;42474;51.660;5.824;2023-07-08T14:38:53;4.59;;;2.84;;
56593;SDS011;42474;51.660;5.824;2023-07-08T14:46:53;3.9;;;2.68;;
56593;SDS011;42474;51.660;5.824;2023-07-08T14:50:53;6.12;;;2.86;;
56593;SDS011;42474;51.660;5.824;2023-07-08T14:54:53;5.98;;;2.96;;
56593;SDS011;42474;51.660;5.824;2023-07-08T14:58:53;4.83;;;2.7;;
56593;SDS011;42474;51.660;5.824;2023-07-08T15:02:53;6.63;;;2.94;;
56593;SDS011;42474;51.660;5.824;2023-07-08T15:06:54;5.19;;;2.71;;
56593;SDS011;42474;51.660;5.824;2023-07-08T15:10:53;4.68;;;2.77;;
56593;SDS011;42474;51.660;5.824;2023-07-08T15:14:53;3.79;;;2.75;;
56593;SDS011;42474;51.660;5.824;2023-07-08T15:18:53;6.2;;;2.55;;
56593;SDS011;42474;51.660;5.824;2023-07-08T15:22:53;3.94;;;2.86;;
56593;SDS011;42474;51.660;5.824;2023-07-08T15:26:53;5.6;;;3.08;;
56593;SDS011;42474;51.660;5.824;2023-07-08T15:30:53;4.45;;;2.67;;
56593;SDS011;42474;51.660;5.824;2023-07-08T15:34:53;5.15;;;3.15;;
56593;SDS011;42474;51.660;5.824;2023-07-08T15:38:53;4.38;;;2.69;;
56593;SDS011;42474;51.660;5.824;2023-07-08T15:42:55;6.66;;;3.05;;
56593;SDS011;42474;51.660;5.824;2023-07-08T15:46:54;4.04;;;2.84;;
56593;SDS011;42474;51.660;5.824;2023-07-08T15:50:53;4.35;;;2.64;;
56593;SDS011;42474;51.660;5.824;2023-07-08T15:54:53;4.26;;;2.95;;
56593;SDS011;42474;51.660;5.824;2023-07-08T15:58:53;4.96;;;2.81;;
56593;SDS011;42474;51.660;5.824;2023-07-08T16:02:55;4.77;;;2.82;;
56593;SDS011;42474;51.660;5.824;2023-07-08T16:06:53;8.29;;;3.1;;
56593;SDS011;42474;51.660;5.824;2023-07-08T16:10:55;4.72;;;2.86;;
56593;SDS011;42474;51.660;5.824;2023-07-08T16:14:53;5.03;;;3.19;;
56593;SDS011;42474;51.660;5.824;2023-07-08T16:18:53;4.72;;;3.1;;
56593;SDS011;42474;51.660;5.824;2023-07-08T16:22:53;4;;;3.15;;
56593;SDS011;42474;51.660;5.824;2023-07-08T16:26:53;5.2;;;3.46;;
56593;SDS011;42474;51.660;5.824;2023-07-08T16:30:53;4.68;;;3.21;;
56593;SDS011;42474;51.660;5.824;2023-07-08T16:34:53;7.52;;;3.5;;
56593;SDS011;42474;51.660;5.824;2023-07-08T16:38:54;5.9;;;3.63;;
56593;SDS011;42474;51.660;5.824;2023-07-08T16:42:55;8.16;;;3.58;;
56593;SDS011;42474;51.660;5.824;2023-07-08T16:46:53;6.12;;;3.66;;
56593;SDS011;42474;51.660;5.824;2023-07-08T16:50:53;6.03;;;3.65;;
56593;SDS011;42474;51.660;5.824;2023-07-08T16:54:53;5.28;;;3.36;;
56593;SDS011;42474;51.660;5.824;2023-07-08T16:58:54;6.67;;;3.7;;
56593;SDS011;42474;51.660;5.824;2023-07-08T17:02:53;5.61;;;3.71;;
56593;SDS011;42474;51.660;5.824;2023-07-08T17:06:53;7.52;;;4.01;;
56593;SDS011;42474;51.660;5.824;2023-07-08T17:10:53;6.6;;;4;;
56593;SDS011;42474;51.660;5.824;2023-07-08T17:14:53;8.05;;;4.03;;
56593;SDS011;42474;51.660;5.824;2023-07-08T17:18:55;4.82;;;3.72;;
56593;SDS011;42474;51.660;5.824;2023-07-08T17:22:53;5.5;;;3.48;;
56593;SDS011;42474;51.660;5.824;2023-07-08T17:26:53;6.4;;;3.76;;
56593;SDS011;42474;51.660;5.824;2023-07-08T17:30:53;5.62;;;3.72;;
56593;SDS011;42474;51.660;5.824;2023-07-08T17:34:53;5.95;;;3.18;;
56593;SDS011;42474;51.660;5.824;2023-07-08T17:38:53;9.06;;;3.84;;
56593;SDS011;42474;51.660;5.824;2023-07-08T17:42:54;6.33;;;3.69;;
56593;SDS011;42474;51.660;5.824;2023-07-08T17:46:53;7.04;;;3.91;;
56593;SDS011;42474;51.660;5.824;2023-07-08T17:50:53;4.21;;;3.21;;
56593;SDS011;42474;51.660;5.824;2023-07-08T17:54:53;5.58;;;3.78;;
56593;SDS011;42474;51.660;5.824;2023-07-08T17:58:54;8.65;;;4.1;;
56593;SDS011;42474;51.660;5.824;2023-07-08T18:02:54;11.2;;;4.35;;
56593;SDS011;42474;51.660;5.824;2023-07-08T18:06:53;7.51;;;3.98;;
56593;SDS011;42474;51.660;5.824;2023-07-08T18:10:53;8.72;;;3.86;;
56593;SDS011;42474;51.660;5.824;2023-07-08T18:14:53;8.06;;;3.69;;
56593;SDS011;42474;51.660;5.824;2023-07-08T18:22:53;6.97;;;4.16;;
56593;SDS011;42474;51.660;5.824;2023-07-08T18:26:56;7.62;;;4.35;;
56593;SDS011;42474;51.660;5.824;2023-07-08T18:30:53;7.12;;;4.01;;
56593;SDS011;42474;51.660;5.824;2023-07-08T18:34:53;9.23;;;4;;
56593;SDS011;42474;51.660;5.824;2023-07-08T18:38:53;7.71;;;4.17;;
56593;SDS011;42474;51.660;5.824;2023-07-08T18:42:55;8.37;;;4.21;;
56593;SDS011;42474;51.660;5.824;2023-07-08T18:46:53;7.42;;;4.29;;
56593;SDS011;42474;51.660;5.824;2023-07-08T18:50:54;7.53;;;4.2;;
56593;SDS011;42474;51.660;5.824;2023-07-08T18:54:53;6.06;;;3.84;;
56593;SDS011;42474;51.660;5.824;2023-07-08T18:58:53;7.08;;;4.06;;
56593;SDS011;42474;51.660;5.824;2023-07-08T19:02:56;7.8;;;4.2;;
56593;SDS011;42474;51.660;5.824;2023-07-08T19:06:53;8.53;;;4.11;;
56593;SDS011;42474;51.660;5.824;2023-07-08T19:10:53;8.04;;;4.42;;
56593;SDS011;42474;51.660;5.824;2023-07-08T19:14:53;6.26;;;3.86;;
56593;SDS011;42474;51.660;5.824;2023-07-08T19:18:53;8.13;;;4.31;;
56593;SDS011;42474;51.660;5.824;2023-07-08T19:22:53;9.73;;;4.21;;
56593;SDS011;42474;51.660;5.824;2023-07-08T19:26:53;4.99;;;3.57;;
56593;SDS011;42474;51.660;5.824;2023-07-08T19:30:55;5.07;;;4.12;;
56593;SDS011;42474;51.660;5.824;2023-07-08T19:34:53;7.4;;;3.99;;
56593;SDS011;42474;51.660;5.824;2023-07-08T19:38:53;9.34;;;4.28;;
56593;SDS011;42474;51.660;5.824;2023-07-08T19:42:53;8.49;;;4.16;;
56593;SDS011;42474;51.660;5.824;2023-07-08T19:46:54;9.52;;;4.26;;
56593;SDS011;42474;51.660;5.824;2023-07-08T19:50:54;8.08;;;4.12;;
56593;SDS011;42474;51.660;5.824;2023-07-08T19:54:53;6.52;;;4.51;;
56593;SDS011;42474;51.660;5.824;2023-07-08T19:58:53;9.26;;;4.45;;
56593;SDS011;42474;51.660;5.824;2023-07-08T20:02:54;8.05;;;4.71;;
56593;SDS011;42474;51.660;5.824;2023-07-08T20:06:53;10.22;;;5.08;;
56593;SDS011;42474;51.660;5.824;2023-07-08T20:10:53;9.53;;;5.58;;
56593;SDS011;42474;51.660;5.824;2023-07-08T20:14:53;8.86;;;5.25;;
56593;SDS011;42474;51.660;5.824;2023-07-08T20:18:53;10.11;;;4.95;;
56593;SDS011;42474;51.660;5.824;2023-07-08T20:22:54;10.32;;;5.65;;
56593;SDS011;42474;51.660;5.824;2023-07-08T20:26:53;8.71;;;5.05;;
56593;SDS011;42474;51.660;5.824;2023-07-08T20:34:53;10.08;;;5.73;;
56593;SDS011;42474;51.660;5.824;2023-07-08T20:38:53;10.68;;;5.61;;
56593;SDS011;42474;51.660;5.824;2023-07-08T20:42:54;8.87;;;4.71;;
56593;SDS011;42474;51.660;5.824;2023-07-08T20:46:53;11.04;;;4.88;;
56593;SDS011;42474;51.660;5.824;2023-07-08T20:50:53;9.41;;;5.13;;
56593;SDS011;42474;51.660;5.824;2023-07-08T20:54:53;8.65;;;5.16;;
56593;SDS011;42474;51.660;5.824;2023-07-08T20:58:53;8.31;;;5.58;;
56593;SDS011;42474;51.660;5.824;2023-07-08T21:02:54;10.8;;;6.35;;
56593;SDS011;42474;51.660;5.824;2023-07-08T21:06:53;9.22;;;6.19;;
56593;SDS011;42474;51.660;5.824;2023-07-08T21:10:54;8.78;;;5.66;;
56593;SDS011;42474;51.660;5.824;2023-07-08T21:14:53;9.61;;;6.36;;
56593;SDS011;42474;51.660;5.824;2023-07-08T21:18:54;10.95;;;6.69;;
56593;SDS011;42474;51.660;5.824;2023-07-08T21:22:54;10.37;;;5.85;;
56593;SDS011;42474;51.660;5.824;2023-07-08T21:26:53;11.09;;;6.44;;
56593;SDS011;42474;51.660;5.824;2023-07-08T21:30:53;11.66;;;7.11;;
56593;SDS011;42474;51.660;5.824;2023-07-08T21:34:53;10.96;;;7.28;;
56593;SDS011;42474;51.660;5.824;2023-07-08T21:38:56;13.41;;;9.38;;
56593;SDS011;42474;51.660;5.824;2023-07-08T21:42:53;11.9;;;8.2;;
56593;SDS011;42474;51.660;5.824;2023-07-08T21:50:56;17.62;;;9.75;;
56593;SDS011;42474;51.660;5.824;2023-07-08T21:58:53;15.83;;;8.88;;
56593;SDS011;42474;51.660;5.824;2023-07-08T22:06:53;10.62;;;7.54;;
56593;SDS011;42474;51.660;5.824;2023-07-08T22:14:53;12.5;;;7.67;;
56593;SDS011;42474;51.660;5.824;2023-07-08T22:22:53;14.78;;;9.76;;
56593;SDS011;42474;51.660;5.824;2023-07-08T22:26:53;12.49;;;9.72;;
56593;SDS011;42474;51.660;5.824;2023-07-08T22:34:53;17.58;;;10.45;;
56593;SDS011;42474;51.660;5.824;2023-07-08T22:39:02;17.14;;;10.46;;
56593;SDS011;42474;51.660;5.824;2023-07-08T22:46:53;15.35;;;10.7;;
56593;SDS011;42474;51.660;5.824;2023-07-08T22:50:54;17.95;;;11.18;;
56593;SDS011;42474;51.660;5.824;2023-07-08T22:58:53;14.32;;;10.41;;
56593;SDS011;42474;51.660;5.824;2023-07-08T23:02:53;14.49;;;10.43;;
56593;SDS011;42474;51.660;5.824;2023-07-08T23:10:53;16.56;;;10.7;;
56593;SDS011;42474;51.660;5.824;2023-07-08T23:14:54;13.9;;;10.42;;
56593;SDS011;42474;51.660;5.824;2023-07-08T23:18:53;14.72;;;10.87;;
56593;SDS011;42474;51.660;5.824;2023-07-08T23:26:53;18.3;;;11.38;;
56593;SDS011;42474;51.660;5.824;2023-07-08T23:30:53;17.32;;;10.55;;
56593;SDS011;42474;51.660;5.824;2023-07-08T23:34:53;14.57;;;10.42;;
56593;SDS011;42474;51.660;5.824;2023-07-08T23:42:53;16.75;;;11.03;;
56593;SDS011;42474;51.660;5.824;2023-07-08T23:46:55;15.13;;;10.98;;
56593;SDS011;42474;51.660;5.824;2023-07-08T23:50:53;17.06;;;11.62;;
56593;SDS011;42474;51.660;5.824;2023-07-08T23:54:53;17.92;;;11.88;;
56593;SDS011;42474;51.660;5.824;2023-07-08T23:58:53;20.51;;;11.93;;
